createdAt,value
2023-02-25T00:01:27.401Z,12.30
2023-02-25T00:04:16.227Z,12.23
2023-02-25T00:07:05.417Z,11.52
2023-02-25T00:09:54.125Z,11.13
2023-02-25T00:12:44.281Z,11.98
2023-02-25T00:15:33.096Z,11.90
2023-02-25T00:18:21.876Z,11.82
2023-02-25T00:21:12.822Z,14.00
2023-02-25T00:24:15.298Z,14.60
2023-02-25T00:27:05.072Z,12.77
2023-02-25T00:29:55.434Z,17.35
2023-02-25T00:32:44.243Z,16.23
2023-02-25T00:35:33.043Z,16.83
2023-02-25T00:38:22.721Z,18.73
2023-02-25T00:41:12.847Z,17.42
2023-02-25T00:44:02.397Z,17.83
2023-02-25T00:46:52.567Z,16.73
2023-02-25T00:49:41.503Z,16.92
2023-02-25T00:52:30.251Z,14.90
2023-02-25T00:55:19.395Z,15.73
2023-02-25T00:58:08.238Z,16.90
2023-02-25T01:00:56.972Z,15.40
2023-02-25T01:03:47.060Z,17.90
2023-02-25T01:06:37.680Z,22.17
2023-02-25T01:09:26.891Z,24.55
2023-02-25T01:12:15.763Z,22.58
2023-02-25T01:15:04.573Z,25.42
2023-02-25T01:17:53.337Z,22.03
2023-02-25T01:20:43.472Z,23.08
2023-02-25T01:23:32.232Z,22.10
2023-02-25T01:26:21.260Z,22.58
2023-02-25T01:29:10.735Z,24.83
2023-02-25T01:32:01.016Z,29.73
2023-02-25T01:34:49.911Z,25.85
2023-02-25T01:37:40.088Z,24.35
2023-02-25T01:40:28.865Z,28.92
2023-02-25T01:43:19.134Z,30.43
2023-02-25T01:46:07.993Z,27.40
2023-02-25T01:48:56.975Z,26.02
2023-02-25T01:51:46.689Z,31.17
2023-02-25T01:54:37.370Z,31.30
2023-02-25T01:57:26.645Z,27.48
2023-02-25T02:00:16.912Z,26.48
2023-02-25T02:03:06.209Z,28.58
2023-02-25T02:05:57.433Z,28.23
2023-02-25T02:08:46.595Z,26.42
2023-02-25T02:11:36.757Z,34.58
2023-02-25T02:14:27.620Z,33.97
2023-02-25T02:17:20.361Z,31.70
2023-02-25T02:20:14.297Z,31.48
2023-02-25T02:23:22.023Z,32.22
2023-02-25T02:26:31.786Z,30.10
2023-02-25T02:29:38.987Z,28.52
2023-02-25T02:32:33.318Z,30.33
2023-02-25T02:35:25.360Z,30.88
2023-02-25T02:38:16.127Z,30.30
2023-02-25T02:41:08.662Z,29.50
2023-02-25T02:43:59.397Z,31.60
2023-02-25T02:46:50.396Z,35.78
2023-02-25T02:49:45.229Z,31.27
2023-02-25T02:52:36.822Z,32.30
2023-02-25T02:55:28.235Z,34.40
2023-02-25T02:58:21.422Z,30.42
2023-02-25T03:01:17.706Z,33.88
2023-02-25T03:04:10.307Z,38.00
2023-02-25T03:07:04.628Z,34.75
2023-02-25T03:09:56.411Z,31.33
2023-02-25T03:12:44.894Z,33.88
2023-02-25T03:15:36.336Z,36.33
2023-02-25T03:18:34.383Z,34.58
2023-02-25T03:21:27.714Z,37.55
2023-02-25T03:24:23.362Z,36.33
2023-02-25T03:27:26.771Z,37.78
2023-02-25T03:30:22.436Z,31.90
2023-02-25T03:33:14.939Z,28.42
2023-02-25T03:36:08.652Z,36.80
2023-02-25T03:39:00.159Z,32.42
2023-02-25T03:41:53.299Z,32.97
2023-02-25T03:44:46.532Z,31.80
2023-02-25T03:47:38.268Z,27.33
2023-02-25T03:50:31.336Z,26.90
2023-02-25T03:53:19.945Z,25.40
2023-02-25T03:56:11.696Z,24.67
2023-02-25T03:59:01.518Z,27.63
2023-02-25T04:01:53.413Z,27.03
2023-02-25T04:04:42.556Z,23.30
2023-02-25T04:07:31.079Z,21.88
2023-02-25T04:10:26.208Z,20.27
2023-02-25T04:13:20.411Z,22.05
2023-02-25T04:16:10.439Z,21.48
2023-02-25T04:18:59.260Z,21.65
2023-02-25T04:21:48.122Z,24.10
2023-02-25T04:24:36.562Z,21.13
2023-02-25T04:27:25.050Z,20.83
2023-02-25T04:30:14.575Z,20.90
2023-02-25T04:33:04.709Z,19.95
2023-02-25T04:35:53.217Z,24.13
2023-02-25T04:38:42.368Z,22.47
2023-02-25T04:41:33.101Z,21.57
2023-02-25T04:44:21.623Z,19.58
2023-02-25T04:47:10.183Z,18.97
2023-02-25T04:50:00.500Z,18.90
2023-02-25T04:52:49.301Z,19.08
2023-02-25T04:55:37.935Z,17.88
2023-02-25T04:58:26.587Z,17.77
2023-02-25T05:01:15.260Z,17.92
2023-02-25T05:04:03.688Z,16.60
2023-02-25T05:06:53.575Z,19.00
2023-02-25T05:09:42.000Z,17.13
2023-02-25T05:12:30.472Z,16.85
2023-02-25T05:15:18.994Z,16.75
2023-02-25T05:18:07.589Z,15.53
2023-02-25T05:20:56.015Z,16.77
2023-02-25T05:23:47.126Z,15.98
2023-02-25T05:26:35.610Z,19.73
2023-02-25T05:29:24.077Z,19.27
2023-02-25T05:32:12.722Z,19.33
2023-02-25T05:35:01.394Z,18.38
2023-02-25T05:37:49.846Z,17.10
2023-02-25T05:40:41.421Z,18.03
2023-02-25T05:43:30.242Z,16.60
2023-02-25T05:46:18.897Z,16.10
2023-02-25T05:49:07.404Z,16.33
2023-02-25T05:51:55.865Z,15.20
2023-02-25T05:54:44.513Z,16.48
2023-02-25T05:57:34.384Z,17.43
2023-02-25T06:00:23.702Z,16.00
2023-02-25T06:03:12.460Z,16.08
2023-02-25T06:06:02.484Z,15.38
2023-02-25T06:08:51.578Z,17.10
2023-02-25T06:11:40.067Z,17.10
2023-02-25T06:14:29.940Z,18.90
2023-02-25T06:17:18.588Z,20.95
2023-02-25T06:20:08.984Z,20.60
2023-02-25T06:22:57.560Z,19.58
2023-02-25T06:25:46.072Z,20.55
2023-02-25T06:28:34.570Z,21.20
2023-02-25T06:31:25.759Z,24.30
2023-02-25T06:34:14.270Z,25.20
2023-02-25T06:37:02.772Z,26.98
2023-02-25T06:39:51.346Z,25.23
2023-02-25T06:42:39.883Z,27.88
2023-02-25T06:45:28.528Z,29.85
2023-02-25T06:48:18.286Z,26.73
2023-02-25T06:51:09.635Z,27.30
2023-02-25T06:53:58.218Z,31.27
2023-02-25T06:56:46.922Z,29.52
2023-02-25T06:59:35.916Z,31.92
2023-02-25T07:02:24.357Z,28.02
2023-02-25T07:05:14.197Z,31.77
2023-02-25T07:08:02.655Z,33.03
2023-02-25T07:10:51.163Z,34.70
2023-02-25T07:13:39.637Z,31.42
2023-02-25T07:16:30.008Z,35.33
2023-02-25T07:19:18.446Z,35.33
2023-02-25T07:22:09.857Z,36.17
2023-02-25T07:24:58.422Z,34.72
2023-02-25T07:27:46.914Z,37.13
2023-02-25T07:30:35.397Z,37.78
2023-02-25T07:33:23.931Z,40.93
2023-02-25T07:36:13.599Z,42.10
2023-02-25T07:39:04.416Z,40.73
2023-02-25T07:41:52.845Z,40.58
2023-02-25T07:44:41.414Z,37.22
2023-02-25T07:47:29.912Z,37.72
2023-02-25T07:50:18.476Z,44.70
2023-02-25T07:53:06.922Z,44.58
2023-02-25T07:55:56.695Z,42.47
2023-02-25T07:58:45.256Z,47.33
2023-02-25T08:01:35.331Z,42.83
2023-02-25T08:04:24.603Z,54.50
2023-02-25T08:07:13.196Z,47.53
2023-02-25T08:10:01.651Z,49.33
2023-02-25T08:12:51.501Z,47.43
2023-02-25T08:15:42.643Z,44.72
2023-02-25T08:18:31.098Z,47.20
2023-02-25T08:21:21.680Z,50.08
2023-02-25T08:24:10.820Z,45.72
2023-02-25T08:26:59.328Z,46.60
2023-02-25T08:29:49.385Z,49.47
2023-02-25T08:32:38.491Z,49.15
2023-02-25T08:35:27.654Z,48.77
2023-02-25T08:38:16.111Z,46.55
2023-02-25T08:41:04.863Z,44.08
2023-02-25T08:43:55.492Z,49.00
2023-02-25T08:46:46.004Z,49.83
2023-02-25T08:49:34.499Z,50.15
2023-02-25T08:52:22.953Z,46.88
2023-02-25T08:55:14.913Z,51.65
2023-02-25T08:58:03.416Z,50.85
2023-02-25T09:00:52.040Z,53.28
2023-02-25T09:03:53.591Z,52.22
2023-02-25T09:06:42.220Z,47.65
2023-02-25T09:09:30.955Z,48.33
2023-02-25T09:12:19.543Z,46.03
2023-02-25T09:15:09.050Z,47.13
2023-02-25T09:17:57.447Z,43.13
2023-02-25T09:20:51.013Z,44.07
2023-02-25T09:23:39.725Z,41.38
2023-02-25T09:26:28.571Z,41.25
2023-02-25T09:29:17.649Z,38.40
2023-02-25T09:32:06.720Z,41.05
2023-02-25T09:34:56.091Z,43.80
2023-02-25T09:37:46.238Z,41.50
2023-02-25T09:40:35.030Z,38.47
2023-02-25T09:43:26.848Z,38.55
2023-02-25T09:46:18.880Z,31.23
2023-02-25T09:49:10.251Z,35.25
2023-02-25T09:52:05.813Z,32.90
2023-02-25T09:54:59.182Z,32.28
2023-02-25T09:57:54.219Z,32.88
2023-02-25T10:00:46.709Z,27.65
2023-02-25T10:03:50.435Z,26.80
2023-02-25T10:06:44.088Z,28.05
2023-02-25T10:09:40.082Z,25.73
2023-02-25T10:12:35.932Z,27.63
2023-02-25T10:15:38.510Z,25.02
2023-02-25T10:18:47.630Z,26.27
2023-02-25T10:22:06.577Z,28.33
2023-02-25T10:24:59.406Z,27.70
2023-02-25T10:27:55.108Z,30.60
2023-02-25T10:30:51.467Z,30.02
2023-02-25T10:33:42.111Z,24.08
2023-02-25T10:36:35.018Z,22.63
2023-02-25T10:39:24.076Z,26.67
2023-02-25T10:42:13.741Z,26.10
2023-02-25T10:45:14.522Z,24.02
2023-02-25T10:48:08.422Z,22.38
2023-02-25T10:51:06.707Z,28.23
2023-02-25T10:54:07.551Z,26.88
2023-02-25T10:56:58.787Z,23.67
2023-02-25T10:59:49.181Z,31.42
2023-02-25T11:02:43.602Z,30.85
2023-02-25T11:05:36.188Z,24.92
2023-02-25T11:08:30.848Z,35.42
2023-02-25T11:11:22.483Z,27.27
2023-02-25T11:14:16.920Z,33.30
2023-02-25T11:17:08.657Z,28.73
2023-02-25T11:20:02.558Z,27.90
2023-02-25T11:22:53.692Z,29.08
2023-02-25T11:25:44.634Z,28.15
2023-02-25T11:28:37.042Z,24.88
2023-02-25T11:31:30.428Z,26.02
2023-02-25T11:34:24.061Z,23.38
2023-02-25T11:37:35.846Z,26.77
2023-02-25T11:40:28.324Z,25.90
2023-02-25T11:43:20.181Z,24.50
2023-02-25T11:46:14.015Z,29.13
2023-02-25T11:49:18.718Z,25.88
2023-02-25T11:52:13.050Z,27.60
2023-02-25T11:55:12.722Z,22.95
2023-02-25T11:58:11.120Z,22.58
2023-02-25T12:01:04.739Z,29.42
2023-02-25T12:04:01.083Z,30.67
2023-02-25T12:07:08.390Z,24.17
2023-02-25T12:10:05.116Z,28.57
2023-02-25T12:13:16.447Z,22.90
2023-02-25T12:16:23.388Z,27.42
2023-02-25T12:19:24.342Z,24.00
2023-02-25T12:22:27.174Z,22.70
2023-02-25T12:25:21.260Z,25.08
2023-02-25T12:28:24.838Z,20.98
2023-02-25T12:31:37.297Z,20.83
2023-02-25T12:34:38.819Z,19.25
2023-02-25T12:37:41.420Z,28.25
2023-02-25T12:40:45.057Z,21.98
2023-02-25T12:43:37.467Z,20.65
2023-02-25T12:46:35.518Z,20.80
2023-02-25T12:49:32.909Z,22.67
2023-02-25T12:52:35.414Z,20.77
2023-02-25T12:55:41.077Z,21.52
2023-02-25T12:58:37.676Z,20.83
2023-02-25T13:01:53.308Z,25.50
2023-02-25T13:04:47.247Z,21.40
2023-02-25T13:07:48.289Z,27.52
2023-02-25T13:10:56.985Z,22.05
2023-02-25T13:13:52.122Z,21.23
2023-02-25T13:16:59.506Z,29.23
2023-02-25T13:20:01.108Z,21.63
2023-02-25T13:22:56.796Z,28.90
2023-02-25T13:25:50.437Z,23.80
2023-02-25T13:29:04.838Z,26.70
2023-02-25T13:32:04.583Z,39.58
2023-02-25T13:35:13.834Z,31.03
2023-02-25T13:38:20.648Z,27.97
2023-02-25T13:41:37.728Z,25.08
2023-02-25T13:44:42.306Z,26.98
2023-02-25T13:47:53.781Z,24.08
2023-02-25T13:51:08.314Z,26.23
2023-02-25T13:54:34.937Z,28.23
2023-02-25T13:57:46.536Z,29.45
2023-02-25T14:00:51.457Z,28.37
2023-02-25T14:04:01.407Z,32.53
2023-02-25T14:07:19.801Z,32.17
2023-02-25T14:10:41.830Z,32.95
2023-02-25T14:14:09.736Z,31.58
2023-02-25T14:17:28.206Z,30.50
2023-02-25T14:20:28.376Z,30.60
2023-02-25T14:23:29.465Z,30.77
2023-02-25T14:26:30.160Z,30.92
2023-02-25T14:29:26.311Z,29.27
2023-02-25T14:32:35.991Z,31.25
2023-02-25T14:35:44.912Z,30.70
2023-02-25T14:38:44.734Z,26.92
2023-02-25T14:41:49.915Z,27.02
2023-02-25T14:44:46.161Z,28.48
2023-02-25T14:47:37.707Z,21.02
2023-02-25T14:50:32.304Z,25.40
2023-02-25T14:53:48.380Z,31.13
2023-02-25T14:57:07.326Z,29.20
2023-02-25T15:00:16.201Z,22.35
2023-02-25T15:03:34.325Z,25.77
2023-02-25T15:06:44.850Z,29.63
2023-02-25T15:09:56.908Z,27.33
2023-02-25T15:13:12.467Z,27.23
2023-02-25T15:16:32.503Z,25.65
2023-02-25T15:19:54.386Z,25.60
2023-02-25T15:22:56.792Z,24.52
2023-02-25T15:25:49.576Z,26.02
2023-02-25T15:28:48.292Z,28.03
2023-02-25T15:31:40.405Z,26.05
2023-02-25T15:34:38.614Z,19.02
2023-02-25T15:37:31.381Z,24.67
2023-02-25T15:40:46.253Z,19.97
2023-02-25T15:43:46.936Z,24.83
2023-02-25T15:46:46.350Z,20.33
2023-02-25T15:49:37.799Z,20.00
2023-02-25T15:52:53.185Z,19.48
2023-02-25T15:55:43.144Z,22.65
2023-02-25T15:58:44.371Z,20.92
2023-02-25T16:01:43.872Z,22.52
2023-02-25T16:04:48.858Z,17.30
2023-02-25T16:07:39.576Z,20.50
2023-02-25T16:10:32.865Z,20.70
2023-02-25T16:13:28.154Z,18.42
2023-02-25T16:16:18.422Z,18.30
2023-02-25T16:19:11.673Z,16.75
2023-02-25T16:22:03.726Z,21.73
2023-02-25T16:24:54.108Z,23.40
2023-02-25T16:27:55.475Z,20.45
2023-02-25T16:30:50.870Z,20.85
2023-02-25T16:33:46.560Z,17.70
2023-02-25T16:36:42.679Z,18.25
2023-02-25T16:39:32.660Z,15.45
2023-02-25T16:42:21.884Z,18.55
2023-02-25T16:45:22.418Z,19.35
2023-02-25T16:48:17.244Z,17.25
2023-02-25T16:51:11.383Z,18.10
2023-02-25T16:54:06.391Z,15.98
2023-02-25T16:56:59.045Z,18.35
2023-02-25T16:59:50.686Z,16.80
2023-02-25T17:02:46.451Z,21.65
2023-02-25T17:05:37.434Z,26.65
2023-02-25T17:08:25.864Z,25.17
2023-02-25T17:11:18.221Z,26.17
2023-02-25T17:14:06.867Z,22.63
2023-02-25T17:16:55.824Z,21.50
2023-02-25T17:19:44.481Z,18.67
2023-02-25T17:22:35.282Z,19.47
2023-02-25T17:25:27.341Z,20.17
2023-02-25T17:28:23.998Z,19.27
2023-02-25T17:31:15.140Z,21.15
2023-02-25T17:34:05.128Z,21.05
2023-02-25T17:36:54.203Z,19.83
2023-02-25T17:39:44.249Z,20.48
2023-02-25T17:42:35.608Z,19.67
2023-02-25T17:45:47.095Z,20.20
2023-02-25T17:48:43.150Z,21.48
2023-02-25T17:51:34.364Z,20.83
2023-02-25T17:54:25.353Z,22.40
2023-02-25T17:57:18.951Z,22.10
2023-02-25T18:00:14.242Z,24.17
2023-02-25T18:03:19.571Z,21.40
2023-02-25T18:06:29.649Z,23.67
2023-02-25T18:09:39.381Z,23.00
2023-02-25T18:12:31.088Z,22.58
2023-02-25T18:15:22.027Z,22.93
2023-02-25T18:18:22.734Z,22.50
2023-02-25T18:21:12.477Z,23.00
2023-02-25T18:24:01.682Z,22.58
2023-02-25T18:27:02.731Z,22.35
2023-02-25T18:29:51.494Z,23.35
2023-02-25T18:32:40.119Z,29.00
2023-02-25T18:35:31.953Z,30.27
2023-02-25T18:38:22.605Z,29.42
2023-02-25T18:41:12.040Z,38.58
2023-02-25T18:44:01.997Z,37.70
2023-02-25T18:46:51.088Z,38.03
2023-02-25T18:49:39.856Z,34.28
2023-02-25T18:52:29.939Z,43.75
2023-02-25T18:55:19.822Z,46.70
2023-02-25T18:58:13.448Z,48.83
2023-02-25T19:01:02.567Z,58.08
2023-02-25T19:03:51.888Z,52.80
2023-02-25T19:06:40.690Z,39.45
2023-02-25T19:09:30.888Z,42.37
2023-02-25T19:12:20.390Z,38.13
2023-02-25T19:15:14.359Z,38.95
2023-02-25T19:18:03.024Z,42.50
2023-02-25T19:20:51.774Z,42.38
2023-02-25T19:23:40.446Z,39.88
2023-02-25T19:26:30.634Z,36.20
2023-02-25T19:29:19.575Z,37.42
2023-02-25T19:32:08.142Z,38.65
2023-02-25T19:34:56.674Z,35.57
2023-02-25T19:37:45.268Z,34.83
2023-02-25T19:40:34.460Z,35.75
2023-02-25T19:43:24.354Z,34.47
2023-02-25T19:46:17.226Z,37.03
2023-02-25T19:49:06.026Z,38.13
2023-02-25T19:51:54.736Z,35.20
2023-02-25T19:54:43.417Z,36.97
2023-02-25T19:57:31.932Z,35.73
2023-02-25T20:00:23.761Z,41.28
2023-02-25T20:03:12.511Z,38.53
2023-02-25T20:06:06.736Z,34.90
2023-02-25T20:08:55.946Z,33.58
2023-02-25T20:11:46.376Z,33.17
2023-02-25T20:14:35.205Z,30.25
2023-02-25T20:17:26.088Z,33.22
2023-02-25T20:20:17.718Z,31.90
2023-02-25T20:23:06.989Z,28.93
2023-02-25T20:26:05.006Z,26.60
2023-02-25T20:28:55.133Z,26.58
2023-02-25T20:31:43.863Z,28.98
2023-02-25T20:34:34.129Z,26.80
2023-02-25T20:37:24.681Z,27.50
2023-02-25T20:40:14.371Z,25.97
2023-02-25T20:43:03.198Z,27.08
2023-02-25T20:45:52.135Z,25.67
2023-02-25T20:48:40.890Z,26.15
2023-02-25T20:51:31.666Z,25.63
2023-02-25T20:54:21.080Z,26.20
2023-02-25T20:57:12.801Z,30.45
2023-02-25T21:00:02.808Z,27.77
2023-02-25T21:02:51.388Z,26.02
2023-02-25T21:05:40.395Z,25.50
2023-02-25T21:08:30.258Z,25.77
2023-02-25T21:11:18.904Z,25.65
2023-02-25T21:14:10.303Z,24.67
2023-02-25T21:16:59.128Z,25.15
2023-02-25T21:19:47.567Z,29.70
2023-02-25T21:22:36.362Z,32.90
2023-02-25T21:25:26.381Z,26.10
2023-02-25T21:28:14.850Z,26.55
2023-02-25T21:31:06.265Z,26.17
2023-02-25T21:33:54.780Z,32.20
2023-02-25T21:36:43.793Z,25.92
2023-02-25T21:39:32.289Z,25.98
2023-02-25T21:42:22.169Z,25.63
2023-02-25T21:45:13.029Z,26.98
2023-02-25T21:48:01.538Z,25.23
2023-02-25T21:50:50.067Z,26.05
2023-02-25T21:53:38.480Z,26.08
2023-02-25T21:56:28.061Z,27.60
2023-02-25T21:59:18.683Z,26.27
2023-02-25T22:02:07.204Z,27.00
2023-02-25T22:04:55.701Z,31.98
2023-02-25T22:07:44.156Z,29.63
2023-02-25T22:10:34.203Z,29.95
2023-02-25T22:13:22.672Z,27.70
2023-02-25T22:16:13.701Z,28.45
2023-02-25T22:19:02.271Z,27.25
2023-02-25T22:21:51.179Z,26.70
2023-02-25T22:24:39.653Z,33.55
2023-02-25T22:27:28.096Z,30.13
2023-02-25T22:30:16.731Z,28.05
2023-02-25T22:33:06.575Z,27.10
2023-02-25T22:35:59.058Z,29.10
2023-02-25T22:38:48.895Z,27.40
2023-02-25T22:41:38.396Z,26.88
2023-02-25T22:44:26.930Z,27.77
2023-02-25T22:47:15.347Z,30.57
2023-02-25T22:50:05.658Z,28.33
2023-02-25T22:52:54.167Z,31.80
2023-02-25T22:55:42.650Z,29.73
2023-02-25T22:58:31.976Z,39.58
2023-02-25T23:01:22.685Z,33.13
2023-02-25T23:04:11.132Z,36.10
2023-02-25T23:07:01.135Z,39.33
2023-02-25T23:09:49.886Z,35.22
2023-02-25T23:12:38.535Z,37.38
2023-02-25T23:15:28.593Z,37.42
2023-02-25T23:18:19.130Z,33.90
2023-02-25T23:21:12.076Z,38.60
2023-02-25T23:24:02.974Z,34.20
2023-02-25T23:26:53.710Z,39.75
2023-02-25T23:29:42.510Z,38.88
2023-02-25T23:32:31.093Z,37.00
2023-02-25T23:35:19.660Z,30.65
2023-02-25T23:38:08.109Z,36.22
2023-02-25T23:41:01.258Z,30.97
2023-02-25T23:43:53.204Z,33.20
2023-02-25T23:46:45.011Z,30.88
2023-02-25T23:49:33.837Z,31.23
2023-02-25T23:52:22.311Z,35.83
2023-02-25T23:55:11.616Z,37.40
2023-02-25T23:58:01.464Z,31.48
